createdAt,value
2022-09-03T00:03:55.582Z,1.73
2022-09-03T00:09:04.521Z,1.60
2022-09-03T00:14:19.388Z,1.67
2022-09-03T00:19:29.111Z,1.53
2022-09-03T00:24:36.227Z,1.57
2022-09-03T00:30:01.028Z,1.63
2022-09-03T00:35:09.224Z,1.70
2022-09-03T00:40:35.569Z,1.30
2022-09-03T00:45:57.359Z,1.70
2022-09-03T00:51:25.774Z,1.40
2022-09-03T00:57:01.481Z,1.53
2022-09-03T01:02:40.777Z,1.50
2022-09-03T01:07:58.913Z,1.40
2022-09-03T01:13:27.016Z,1.70
2022-09-03T01:18:45.342Z,1.60
2022-09-03T01:24:09.794Z,1.60
2022-09-03T01:29:22.070Z,1.50
2022-09-03T01:34:39.531Z,1.60
2022-09-03T01:40:03.907Z,1.60
2022-09-03T01:45:22.651Z,1.63
2022-09-03T01:50:40.216Z,1.77
2022-09-03T01:56:08.094Z,1.60
2022-09-03T02:01:35.738Z,1.53
2022-09-03T02:06:39.417Z,1.60
2022-09-03T02:11:43.798Z,1.87
2022-09-03T02:16:46.952Z,1.43
2022-09-03T02:21:55.333Z,1.30
2022-09-03T02:26:57.845Z,1.33
2022-09-03T02:32:00.314Z,1.60
2022-09-03T02:37:14.053Z,1.50
2022-09-03T02:42:17.104Z,1.47
2022-09-03T02:47:20.703Z,1.63
2022-09-03T02:52:23.086Z,1.53
2022-09-03T02:57:27.771Z,1.50
2022-09-03T03:02:30.402Z,1.50
2022-09-03T03:07:36.850Z,1.40
2022-09-03T03:12:39.587Z,1.20
2022-09-03T03:17:41.995Z,1.53
2022-09-03T03:22:44.276Z,1.10
2022-09-03T03:27:47.254Z,1.53
2022-09-03T03:32:49.732Z,1.60
2022-09-03T03:37:52.337Z,1.77
2022-09-03T03:42:57.271Z,1.63
2022-09-03T03:47:59.665Z,1.50
2022-09-03T03:53:02.423Z,1.30
2022-09-03T03:58:05.316Z,1.40
2022-09-03T04:03:07.860Z,1.33
2022-09-03T04:08:10.506Z,1.30
2022-09-03T04:13:12.768Z,1.47
2022-09-03T04:18:15.352Z,1.20
2022-09-03T04:23:17.881Z,1.50
2022-09-03T04:28:20.272Z,1.53
2022-09-03T04:33:25.144Z,1.40
2022-09-03T04:38:29.885Z,1.40
2022-09-03T04:43:33.414Z,1.40
2022-09-03T04:48:37.682Z,1.23
2022-09-03T04:53:42.651Z,1.60
2022-09-03T04:58:45.898Z,1.33
2022-09-03T05:03:54.590Z,1.40
2022-09-03T05:08:57.817Z,1.40
2022-09-03T05:14:00.967Z,1.30
2022-09-03T05:19:06.027Z,1.43
2022-09-03T05:24:09.209Z,1.50
2022-09-03T05:29:11.805Z,1.10
2022-09-03T05:34:16.533Z,1.10
2022-09-03T05:39:20.776Z,1.30
2022-09-03T05:44:23.816Z,1.27
2022-09-03T05:49:26.384Z,1.30
2022-09-03T05:54:31.842Z,1.40
2022-09-03T05:59:34.197Z,1.13
2022-09-03T06:04:36.960Z,1.30
2022-09-03T06:09:39.600Z,1.13
2022-09-03T06:14:43.569Z,1.40
2022-09-03T06:19:46.231Z,1.03
2022-09-03T06:24:48.682Z,1.30
2022-09-03T06:29:51.039Z,1.40
2022-09-03T06:34:53.698Z,1.40
2022-09-03T06:39:56.114Z,1.70
2022-09-03T06:44:58.449Z,1.30
2022-09-03T06:50:02.094Z,1.40
2022-09-03T06:55:05.527Z,1.20
2022-09-03T07:00:08.902Z,1.20
2022-09-03T07:05:14.136Z,1.10
2022-09-03T07:10:20.739Z,1.10
2022-09-03T07:15:23.094Z,1.20
2022-09-03T07:20:25.522Z,1.43
2022-09-03T07:25:28.408Z,1.30
2022-09-03T07:30:31.830Z,1.30
2022-09-03T07:35:37.074Z,1.30
2022-09-03T07:40:39.493Z,1.50
2022-09-03T07:45:42.106Z,1.43
2022-09-03T07:50:44.853Z,1.30
2022-09-03T07:55:48.831Z,1.40
2022-09-03T08:00:51.154Z,1.50
2022-09-03T08:05:53.964Z,1.37
2022-09-03T08:10:58.386Z,1.23
2022-09-03T08:16:01.346Z,1.40
2022-09-03T08:21:15.741Z,1.70
2022-09-03T08:26:19.428Z,1.17
2022-09-03T08:31:25.035Z,1.57
2022-09-03T08:36:32.698Z,1.40
2022-09-03T08:41:53.189Z,1.13
2022-09-03T08:47:13.625Z,1.30
2022-09-03T08:52:28.429Z,1.27
2022-09-03T08:57:36.478Z,1.67
2022-09-03T09:02:51.450Z,1.40
2022-09-03T09:08:02.951Z,1.30
2022-09-03T09:13:39.525Z,1.20
2022-09-03T09:19:20.894Z,1.50
2022-09-03T09:24:26.741Z,1.50
2022-09-03T09:29:32.906Z,1.40
2022-09-03T09:34:37.433Z,2.53
2022-09-03T09:39:41.854Z,1.60
2022-09-03T09:44:44.274Z,1.60
2022-09-03T09:49:47.031Z,1.57
2022-09-03T09:54:49.350Z,1.87
2022-09-03T10:00:18.530Z,1.70
2022-09-03T10:05:25.274Z,4.70
2022-09-03T10:10:32.849Z,2.20
2022-09-03T10:15:43.868Z,1.90
2022-09-03T10:20:53.573Z,1.83
2022-09-03T10:26:08.961Z,1.90
2022-09-03T10:31:36.577Z,1.70
2022-09-03T10:37:21.801Z,1.93
2022-09-03T10:42:37.228Z,1.63
2022-09-03T10:47:51.565Z,1.90
2022-09-03T10:53:08.431Z,1.80
2022-09-03T10:58:47.734Z,1.97
2022-09-03T11:04:15.086Z,1.60
2022-09-03T11:09:24.386Z,1.77
2022-09-03T11:14:47.010Z,1.57
2022-09-03T11:19:56.373Z,1.97
2022-09-03T11:25:01.612Z,2.33
2022-09-03T11:30:08.057Z,2.20
2022-09-03T11:35:35.770Z,1.90
2022-09-03T11:40:42.358Z,1.80
2022-09-03T11:45:44.884Z,1.97
2022-09-03T11:50:55.588Z,2.10
2022-09-03T11:56:07.256Z,2.07
2022-09-03T12:01:18.062Z,1.90
2022-09-03T12:06:29.666Z,2.00
2022-09-03T12:11:54.034Z,1.90
2022-09-03T12:17:26.960Z,2.00
2022-09-03T12:22:38.645Z,1.90
2022-09-03T12:27:46.346Z,1.90
2022-09-03T12:33:05.481Z,1.90
2022-09-03T12:38:11.948Z,2.03
2022-09-03T12:43:49.665Z,2.17
2022-09-03T12:54:28.906Z,2.20
2022-09-03T12:59:35.034Z,1.90
2022-09-03T13:04:40.148Z,2.10
2022-09-03T13:09:42.757Z,2.10
2022-09-03T13:14:48.361Z,2.10
2022-09-03T13:20:22.829Z,2.10
2022-09-03T13:25:45.767Z,2.00
2022-09-03T13:30:59.025Z,2.13
2022-09-03T13:36:15.390Z,2.17
2022-09-03T13:41:21.089Z,1.80
2022-09-03T13:46:48.608Z,1.80
2022-09-03T13:51:59.250Z,2.10
2022-09-03T13:57:07.074Z,2.00
2022-09-03T14:02:57.969Z,2.00
2022-09-03T14:08:22.339Z,2.00
2022-09-03T14:14:03.553Z,2.00
2022-09-03T14:19:19.755Z,2.10
2022-09-03T14:24:40.204Z,2.20
2022-09-03T14:30:01.459Z,1.87
2022-09-03T14:35:06.841Z,2.10
2022-09-03T14:40:14.528Z,2.30
2022-09-03T14:45:40.269Z,2.40
2022-09-03T14:51:26.788Z,1.80
2022-09-03T14:57:12.645Z,1.97
2022-09-03T15:02:29.230Z,2.20
2022-09-03T15:07:58.494Z,2.20
2022-09-03T15:13:30.819Z,3.10
2022-09-03T15:18:58.524Z,2.17
2022-09-03T15:24:30.293Z,2.03
2022-09-03T15:29:53.608Z,2.20
2022-09-03T15:35:07.422Z,4.83
2022-09-03T15:40:35.071Z,2.70
2022-09-03T15:46:02.918Z,2.20
2022-09-03T15:51:22.910Z,2.47
2022-09-03T15:56:49.841Z,2.60
2022-09-03T16:02:21.899Z,2.47
2022-09-03T16:07:39.497Z,2.60
2022-09-03T16:13:07.786Z,2.53
2022-09-03T16:18:32.262Z,2.80
2022-09-03T16:23:49.865Z,2.60
2022-09-03T16:29:16.029Z,2.60
2022-09-03T16:34:40.484Z,2.33
2022-09-03T16:39:57.265Z,2.73
2022-09-03T16:45:23.184Z,2.20
2022-09-03T16:51:08.125Z,2.43
2022-09-03T16:56:43.364Z,2.57
2022-09-03T17:01:52.171Z,2.40
2022-09-03T17:07:15.005Z,2.03
2022-09-03T17:12:44.810Z,2.83
2022-09-03T17:17:53.584Z,2.20
2022-09-03T17:23:37.966Z,2.13
2022-09-03T17:29:00.903Z,1.70
2022-09-03T17:34:25.285Z,1.97
2022-09-03T17:39:27.660Z,1.87
2022-09-03T17:45:11.756Z,1.90
2022-09-03T17:50:20.105Z,1.80
2022-09-03T17:56:03.881Z,2.23
2022-09-03T18:01:26.053Z,2.03
2022-09-03T18:06:48.356Z,2.13
2022-09-03T18:11:58.110Z,2.00
2022-09-03T18:17:05.304Z,2.20
2022-09-03T18:22:26.913Z,2.00
2022-09-03T18:28:10.062Z,2.20
2022-09-03T18:33:31.158Z,2.30
2022-09-03T18:38:55.098Z,2.47
2022-09-03T18:44:33.907Z,2.80
2022-09-03T18:50:02.715Z,2.23
2022-09-03T18:55:38.519Z,2.50
2022-09-03T19:01:15.334Z,2.50
2022-09-03T19:06:53.705Z,2.17
2022-09-03T19:12:59.289Z,2.30
2022-09-03T19:18:27.732Z,2.37
2022-09-03T19:23:52.177Z,2.10
2022-09-03T19:29:26.094Z,2.33
2022-09-03T19:35:11.649Z,2.20
2022-09-03T19:40:54.509Z,2.50
2022-09-03T19:46:24.577Z,2.40
2022-09-03T19:51:54.192Z,2.37
2022-09-03T19:57:16.599Z,2.47
2022-09-03T20:02:38.226Z,1.73
2022-09-03T20:08:01.278Z,2.13
2022-09-03T20:13:10.388Z,1.73
2022-09-03T20:18:29.000Z,2.03
2022-09-03T20:23:54.863Z,2.10
2022-09-03T20:29:28.532Z,2.20
2022-09-03T20:34:57.713Z,2.00
2022-09-03T20:40:15.722Z,1.87
2022-09-03T20:45:44.593Z,2.13
2022-09-03T20:51:12.946Z,1.93
2022-09-03T20:56:26.545Z,2.10
2022-09-03T21:02:10.241Z,2.00
2022-09-03T21:07:29.154Z,2.30
2022-09-03T21:13:17.983Z,2.40
2022-09-03T21:18:45.410Z,1.83
2022-09-03T21:23:58.169Z,1.80
2022-09-03T21:29:09.500Z,1.90
2022-09-03T21:34:29.774Z,2.20
2022-09-03T21:39:43.871Z,2.13
2022-09-03T21:45:28.234Z,2.10
2022-09-03T21:50:39.973Z,2.10
2022-09-03T21:55:52.531Z,1.93
2022-09-03T22:01:06.656Z,2.10
2022-09-03T22:06:17.485Z,2.00
2022-09-03T22:11:35.511Z,2.10
2022-09-03T22:16:51.814Z,2.40
2022-09-03T22:21:59.995Z,2.50
2022-09-03T22:27:27.586Z,2.57
2022-09-03T22:33:03.085Z,2.23
2022-09-03T22:38:36.848Z,2.27
2022-09-03T22:44:36.572Z,2.13
2022-09-03T22:49:57.900Z,1.93
2022-09-03T22:55:25.291Z,2.00
2022-09-03T23:00:29.709Z,1.83
2022-09-03T23:05:52.399Z,3.03
2022-09-03T23:11:25.203Z,2.37
2022-09-03T23:16:37.483Z,1.90
2022-09-03T23:21:43.158Z,1.93
2022-09-03T23:26:52.460Z,1.70
2022-09-03T23:31:59.446Z,1.87
2022-09-03T23:37:33.455Z,1.77
2022-09-03T23:43:28.993Z,2.53
2022-09-03T23:49:04.260Z,2.67
2022-09-03T23:54:22.898Z,2.40
2022-09-03T23:59:31.137Z,3.00
